createdAt,value
2022-12-23T00:02:59.376Z,14.60
2022-12-23T00:08:30.844Z,14.80
2022-12-23T00:11:02.501Z,14.40
2022-12-23T00:13:51.334Z,15.10
2022-12-23T00:16:22.971Z,15.70
2022-12-23T00:18:56.332Z,15.50
2022-12-23T00:21:28.006Z,15.40
2022-12-23T00:23:59.446Z,16.00
2022-12-23T00:26:32.881Z,16.80
2022-12-23T00:29:04.405Z,15.70
2022-12-23T00:31:36.125Z,15.80
2022-12-23T00:34:07.628Z,14.00
2022-12-23T00:36:39.312Z,16.20
2022-12-23T00:39:32.276Z,14.20
2022-12-23T00:42:52.421Z,14.70
2022-12-23T00:47:13.691Z,13.80
2022-12-23T00:48:42.901Z,14.20
2022-12-23T00:51:14.403Z,14.20
2022-12-23T00:53:46.016Z,14.40
2022-12-23T00:56:17.694Z,15.50
2022-12-23T00:58:49.337Z,13.30
2022-12-23T01:01:38.179Z,14.90
2022-12-23T01:04:28.702Z,15.20
2022-12-23T01:07:54.554Z,12.60
2022-12-23T01:11:19.021Z,15.30
2022-12-23T01:17:41.099Z,13.60
2022-12-23T01:18:07.204Z,13.30
2022-12-23T01:21:31.113Z,13.90
2022-12-23T01:24:56.544Z,15.40
2022-12-23T01:28:22.688Z,15.50
2022-12-23T01:31:16.908Z,14.70
2022-12-23T01:34:35.995Z,14.90
2022-12-23T01:37:08.817Z,13.10
2022-12-23T01:39:40.571Z,13.70
2022-12-23T01:42:33.962Z,14.00
2022-12-23T01:45:15.246Z,12.90
2022-12-23T01:47:51.141Z,13.00
2022-12-23T01:50:27.494Z,14.00
2022-12-23T01:53:08.088Z,12.90
2022-12-23T01:55:47.057Z,13.30
2022-12-23T02:00:32.364Z,12.10
2022-12-23T02:02:22.435Z,14.00
2022-12-23T02:05:08.753Z,13.40
2022-12-23T02:08:05.201Z,13.50
2022-12-23T02:11:05.242Z,15.20
2022-12-23T02:14:22.296Z,13.40
2022-12-23T02:17:04.286Z,14.10
2022-12-23T02:19:58.792Z,13.50
2022-12-23T02:22:47.971Z,14.50
2022-12-23T02:26:03.134Z,14.00
2022-12-23T02:29:07.182Z,13.60
2022-12-23T02:31:46.159Z,13.70
2022-12-23T02:34:22.682Z,13.50
2022-12-23T02:37:06.897Z,14.20
2022-12-23T02:39:44.604Z,15.40
2022-12-23T02:42:19.826Z,14.30
2022-12-23T02:45:00.595Z,14.40
2022-12-23T02:47:39.309Z,15.10
2022-12-23T02:50:17.025Z,13.90
2022-12-23T02:52:51.735Z,15.20
2022-12-23T02:58:02.978Z,13.30
2022-12-23T03:00:34.743Z,16.10
2022-12-23T03:03:07.085Z,14.90
2022-12-23T03:05:43.996Z,14.80
2022-12-23T03:08:20.412Z,13.70
2022-12-23T03:13:01.895Z,13.90
2022-12-23T03:14:45.623Z,14.30
2022-12-23T03:17:35.086Z,14.20
2022-12-23T03:20:13.940Z,12.20
2022-12-23T03:22:53.588Z,13.40
2022-12-23T03:25:32.224Z,11.90
2022-12-23T03:28:10.719Z,12.40
2022-12-23T03:30:44.783Z,12.10
2022-12-23T03:33:33.209Z,12.00
2022-12-23T03:37:33.822Z,11.50
2022-12-23T03:39:50.528Z,10.90
2022-12-23T03:46:20.329Z,12.00
2022-12-23T03:46:30.387Z,10.90
2022-12-23T03:49:07.801Z,11.20
2022-12-23T03:51:47.562Z,11.30
2022-12-23T03:54:28.077Z,10.90
2022-12-23T03:57:04.058Z,9.70
2022-12-23T03:59:38.850Z,10.80
2022-12-23T04:05:00.903Z,9.80
2022-12-23T04:07:36.629Z,9.90
2022-12-23T04:10:10.578Z,10.60
2022-12-23T04:12:43.173Z,9.70
2022-12-23T04:15:15.377Z,11.20
2022-12-23T04:17:47.788Z,10.50
2022-12-23T04:20:19.923Z,11.90
2022-12-23T04:22:51.505Z,10.30
2022-12-23T04:25:23.125Z,10.50
2022-12-23T04:27:54.554Z,11.70
2022-12-23T04:38:12.983Z,11.00
2022-12-23T04:40:46.997Z,11.80
2022-12-23T04:43:18.673Z,10.60
2022-12-23T04:45:53.595Z,10.90
2022-12-23T04:48:25.370Z,11.00
2022-12-23T04:50:57.075Z,10.70
2022-12-23T04:53:28.811Z,10.80
2022-12-23T04:56:00.418Z,10.40
2022-12-23T04:58:31.960Z,11.20
2022-12-23T05:01:09.043Z,11.40
2022-12-23T05:03:41.806Z,13.00
2022-12-23T05:06:13.413Z,12.00
2022-12-23T05:09:00.084Z,12.70
2022-12-23T05:11:48.032Z,12.70
2022-12-23T05:14:25.283Z,12.30
2022-12-23T05:17:23.678Z,12.40
2022-12-23T05:20:22.185Z,12.40
2022-12-23T05:23:05.686Z,13.80
2022-12-23T05:25:49.746Z,13.00
2022-12-23T05:28:28.942Z,13.90
2022-12-23T05:32:24.697Z,14.00
2022-12-23T05:34:18.247Z,14.80
2022-12-23T05:36:57.400Z,13.90
2022-12-23T05:39:56.223Z,13.10
2022-12-23T05:44:57.945Z,14.80
2022-12-23T05:45:44.398Z,13.40
2022-12-23T05:49:19.730Z,14.40
2022-12-23T05:52:23.993Z,13.40
2022-12-23T05:55:26.765Z,12.80
2022-12-23T05:58:37.891Z,13.30
2022-12-23T06:01:02.581Z,13.00
2022-12-23T06:03:34.466Z,14.60
2022-12-23T06:06:09.580Z,14.40
2022-12-23T06:08:41.428Z,15.70
2022-12-23T06:11:15.833Z,17.40
2022-12-23T06:13:47.692Z,17.90
2022-12-23T06:16:19.581Z,18.30
2022-12-23T06:19:08.398Z,16.30
2022-12-23T06:21:45.219Z,20.10
2022-12-23T06:24:29.244Z,21.50
2022-12-23T06:27:21.889Z,21.10
2022-12-23T06:30:15.935Z,20.80
2022-12-23T06:33:00.534Z,20.90
2022-12-23T06:35:42.766Z,20.30
2022-12-23T06:38:19.240Z,19.40
2022-12-23T06:40:51.818Z,20.00
2022-12-23T06:43:23.696Z,19.00
2022-12-23T06:45:55.824Z,17.60
2022-12-23T06:48:29.224Z,16.70
2022-12-23T06:51:00.967Z,16.40
2022-12-23T06:53:32.846Z,17.30
2022-12-23T06:56:06.205Z,17.20
2022-12-23T06:58:38.023Z,16.10
2022-12-23T07:01:10.337Z,17.30
2022-12-23T07:07:22.943Z,16.50
2022-12-23T07:09:54.775Z,17.30
2022-12-23T07:12:26.433Z,16.20
2022-12-23T07:14:58.221Z,16.20
2022-12-23T07:17:35.164Z,15.30
2022-12-23T07:20:07.960Z,15.10
2022-12-23T07:22:40.856Z,16.20
2022-12-23T07:25:13.893Z,17.40
2022-12-23T07:27:45.865Z,17.90
2022-12-23T07:30:18.730Z,16.10
2022-12-23T07:32:52.746Z,16.20
2022-12-23T07:35:24.492Z,16.50
2022-12-23T07:38:06.284Z,15.80
2022-12-23T07:40:45.111Z,16.00
2022-12-23T07:43:17.100Z,15.70
2022-12-23T07:45:51.329Z,18.20
2022-12-23T07:48:27.753Z,18.80
2022-12-23T07:51:10.303Z,17.90
2022-12-23T07:53:41.813Z,18.70
2022-12-23T07:56:13.602Z,20.40
2022-12-23T07:58:45.352Z,19.80
2022-12-23T08:01:17.226Z,17.50
2022-12-23T08:03:50.247Z,17.40
2022-12-23T08:06:21.906Z,17.20
2022-12-23T08:08:54.778Z,16.90
2022-12-23T08:11:26.239Z,17.80
2022-12-23T08:13:57.833Z,17.70
2022-12-23T08:16:29.320Z,17.00
2022-12-23T08:19:01.076Z,17.40
2022-12-23T08:21:33.465Z,18.20
2022-12-23T08:24:05.361Z,14.40
2022-12-23T08:26:37.298Z,15.40
2022-12-23T08:29:08.729Z,17.20
2022-12-23T08:31:40.451Z,16.20
2022-12-23T08:34:14.725Z,16.60
2022-12-23T08:36:50.280Z,15.30
2022-12-23T08:39:26.153Z,16.90
2022-12-23T08:41:58.723Z,16.80
2022-12-23T08:44:31.476Z,16.30
2022-12-23T08:47:15.241Z,17.10
2022-12-23T08:50:09.352Z,16.90
2022-12-23T08:53:06.599Z,16.30
2022-12-23T08:55:58.101Z,15.00
2022-12-23T08:58:31.877Z,17.20
2022-12-23T09:01:08.997Z,17.50
2022-12-23T09:03:41.909Z,18.50
2022-12-23T09:06:16.384Z,17.80
2022-12-23T09:08:48.551Z,18.30
2022-12-23T09:11:23.714Z,20.10
2022-12-23T09:13:58.804Z,19.40
2022-12-23T09:16:31.670Z,19.60
2022-12-23T09:19:03.706Z,19.60
2022-12-23T09:21:35.604Z,19.70
2022-12-23T09:24:08.948Z,18.50
2022-12-23T09:26:44.776Z,17.40
2022-12-23T09:29:21.971Z,18.60
2022-12-23T09:31:56.978Z,16.80
2022-12-23T09:34:30.702Z,17.60
2022-12-23T09:37:07.569Z,18.50
2022-12-23T09:39:40.369Z,17.60
2022-12-23T09:42:30.798Z,16.60
2022-12-23T09:45:18.705Z,16.60
2022-12-23T09:47:51.162Z,17.40
2022-12-23T09:50:29.152Z,18.90
2022-12-23T09:53:05.741Z,18.70
2022-12-23T09:55:50.262Z,17.80
2022-12-23T09:58:31.066Z,17.50
2022-12-23T10:01:17.570Z,18.00
2022-12-23T10:04:10.891Z,17.70
2022-12-23T10:06:49.178Z,17.00
2022-12-23T10:09:23.042Z,18.20
2022-12-23T10:11:54.994Z,17.50
2022-12-23T10:14:33.873Z,18.30
2022-12-23T10:17:12.850Z,18.20
2022-12-23T10:19:48.427Z,20.00
2022-12-23T10:22:24.852Z,17.50
2022-12-23T10:25:00.306Z,20.30
2022-12-23T10:27:36.011Z,17.30
2022-12-23T10:30:49.472Z,17.40
2022-12-23T10:33:14.375Z,18.70
2022-12-23T10:35:59.278Z,20.00
2022-12-23T10:38:53.448Z,18.70
2022-12-23T10:41:39.568Z,18.70
2022-12-23T10:44:28.727Z,18.50
2022-12-23T10:47:12.261Z,19.30
2022-12-23T10:49:54.625Z,20.20
2022-12-23T10:52:29.279Z,18.80
2022-12-23T10:55:00.974Z,21.20
2022-12-23T10:57:33.530Z,20.80
2022-12-23T11:00:11.603Z,20.30
2022-12-23T11:03:00.992Z,18.70
2022-12-23T11:05:35.220Z,17.90
2022-12-23T11:08:07.405Z,18.90
2022-12-23T11:10:41.059Z,18.20
2022-12-23T11:13:12.593Z,20.30
2022-12-23T11:15:45.195Z,18.10
2022-12-23T11:18:23.227Z,17.70
2022-12-23T11:21:16.274Z,18.00
2022-12-23T11:23:47.911Z,21.30
2022-12-23T11:26:22.046Z,18.40
2022-12-23T11:29:00.670Z,18.70
2022-12-23T11:31:35.694Z,16.20
2022-12-23T11:34:18.853Z,16.80
2022-12-23T11:37:06.974Z,19.20
2022-12-23T11:39:49.058Z,17.90
2022-12-23T11:42:27.599Z,19.70
2022-12-23T11:45:01.801Z,18.60
2022-12-23T11:47:41.498Z,17.60
2022-12-23T11:50:30.932Z,17.20
2022-12-23T11:53:14.960Z,19.40
2022-12-23T11:55:59.866Z,17.60
2022-12-23T11:58:37.174Z,18.10
2022-12-23T12:02:09.444Z,18.20
2022-12-23T12:05:11.087Z,16.60
2022-12-23T12:15:14.547Z,19.50
2022-12-23T12:18:35.925Z,17.90
2022-12-23T12:21:42.691Z,19.60
2022-12-23T12:28:10.771Z,18.80
2022-12-23T12:31:18.716Z,16.00
2022-12-23T12:34:30.251Z,18.90
2022-12-23T12:37:40.993Z,17.00
2022-12-23T12:40:47.369Z,17.90
2022-12-23T12:46:35.150Z,17.00
2022-12-23T12:52:38.098Z,17.50
2022-12-23T12:55:30.222Z,15.80
2022-12-23T12:58:28.428Z,16.80
2022-12-23T13:01:43.653Z,16.00
2022-12-23T13:05:19.954Z,16.60
2022-12-23T13:08:08.121Z,18.00
2022-12-23T13:10:55.456Z,14.80
2022-12-23T13:13:37.194Z,19.20
2022-12-23T13:16:18.852Z,19.30
2022-12-23T13:18:57.540Z,17.70
2022-12-23T13:21:34.910Z,17.80
2022-12-23T13:24:19.240Z,17.20
2022-12-23T13:26:59.331Z,20.20
2022-12-23T13:29:58.245Z,17.70
2022-12-23T13:32:51.026Z,19.50
2022-12-23T13:35:35.738Z,16.90
2022-12-23T13:38:24.269Z,16.30
2022-12-23T13:41:06.182Z,16.00
2022-12-23T13:43:50.200Z,17.50
2022-12-23T13:46:37.370Z,15.60
2022-12-23T13:52:50.311Z,15.40
2022-12-23T13:59:18.587Z,15.40
2022-12-23T14:02:29.898Z,15.00
2022-12-23T14:05:14.757Z,16.90
2022-12-23T14:08:35.005Z,15.10
2022-12-23T14:12:01.080Z,17.20
2022-12-23T14:14:38.693Z,17.80
2022-12-23T14:17:17.900Z,16.30
2022-12-23T14:20:10.743Z,15.60
2022-12-23T14:22:57.081Z,16.90
2022-12-23T14:25:58.482Z,17.50
2022-12-23T14:28:49.641Z,17.80
2022-12-23T14:31:41.094Z,16.10
2022-12-23T14:37:36.372Z,17.10
2022-12-23T14:40:42.849Z,17.30
2022-12-23T14:47:05.450Z,15.30
2022-12-23T14:49:43.348Z,16.00
2022-12-23T14:52:54.202Z,14.10
2022-12-23T14:55:48.797Z,15.90
2022-12-23T14:59:02.001Z,14.20
2022-12-23T15:01:41.255Z,15.50
2022-12-23T15:04:20.502Z,15.20
2022-12-23T15:06:56.135Z,12.40
2022-12-23T15:09:31.607Z,16.10
2022-12-23T15:12:08.164Z,14.40
2022-12-23T15:14:46.186Z,16.00
2022-12-23T15:17:46.788Z,17.00
2022-12-23T15:21:19.587Z,16.40
2022-12-23T15:24:37.285Z,16.60
2022-12-23T15:31:33.201Z,18.10
2022-12-23T15:34:18.813Z,17.40
2022-12-23T15:37:14.503Z,18.10
2022-12-23T15:39:47.366Z,16.50
2022-12-23T15:42:27.393Z,19.00
2022-12-23T15:44:59.314Z,16.20
2022-12-23T15:47:38.896Z,18.10
2022-12-23T15:50:19.451Z,16.70
2022-12-23T15:52:52.273Z,18.30
2022-12-23T15:55:45.675Z,17.60
2022-12-23T15:58:26.127Z,17.60
2022-12-23T16:00:59.581Z,16.50
2022-12-23T16:03:46.571Z,18.20
2022-12-23T16:06:39.329Z,17.50
2022-12-23T16:09:54.447Z,18.70
2022-12-23T16:12:28.505Z,18.20
2022-12-23T16:15:02.226Z,20.50
2022-12-23T16:17:38.361Z,18.20
2022-12-23T16:20:24.294Z,18.10
2022-12-23T16:22:58.824Z,22.30
2022-12-23T16:25:33.798Z,17.90
2022-12-23T16:28:09.167Z,19.90
2022-12-23T16:30:43.188Z,18.70
2022-12-23T16:33:33.519Z,18.90
2022-12-23T16:36:20.242Z,19.50
2022-12-23T16:38:53.509Z,17.40
2022-12-23T16:41:25.109Z,20.10
2022-12-23T16:43:56.551Z,19.90
2022-12-23T16:46:29.382Z,19.60
2022-12-23T16:49:04.917Z,18.20
2022-12-23T16:51:37.610Z,18.10
2022-12-23T16:54:49.758Z,20.10
2022-12-23T16:57:33.265Z,19.50
2022-12-23T17:00:26.666Z,20.80
2022-12-23T17:13:46.175Z,20.80
2022-12-23T17:16:24.712Z,19.10
2022-12-23T17:18:56.377Z,18.60
2022-12-23T17:21:37.651Z,18.30
2022-12-23T17:24:21.430Z,19.00
2022-12-23T17:26:53.796Z,18.70
2022-12-23T17:29:25.987Z,19.00
2022-12-23T17:32:12.122Z,19.90
2022-12-23T17:35:33.580Z,18.40
2022-12-23T17:41:33.582Z,17.00
2022-12-23T17:47:43.871Z,16.60
2022-12-23T17:50:28.359Z,15.30
2022-12-23T17:53:17.705Z,16.90
2022-12-23T17:55:49.344Z,16.80
2022-12-23T17:58:20.941Z,15.80
2022-12-23T18:00:52.803Z,18.00
2022-12-23T18:03:26.541Z,18.50
2022-12-23T18:06:01.974Z,18.40
2022-12-23T18:08:34.241Z,18.00
2022-12-23T18:11:06.527Z,16.40
2022-12-23T18:13:38.396Z,18.60
2022-12-23T18:16:12.499Z,18.30
2022-12-23T18:18:46.831Z,16.60
2022-12-23T18:21:25.357Z,15.80
2022-12-23T18:24:00.245Z,15.70
2022-12-23T18:26:34.584Z,16.30
2022-12-23T18:29:06.205Z,16.40
2022-12-23T18:31:50.007Z,18.30
2022-12-23T18:34:25.330Z,18.00
2022-12-23T18:37:43.577Z,18.90
2022-12-23T18:40:32.710Z,18.50
2022-12-23T18:50:44.826Z,17.80
2022-12-23T19:00:13.995Z,19.90
2022-12-23T19:03:05.678Z,19.20
2022-12-23T19:05:48.629Z,18.10
2022-12-23T19:08:26.296Z,19.20
2022-12-23T19:11:26.676Z,17.60
2022-12-23T19:14:16.837Z,17.70
2022-12-23T19:16:51.879Z,18.10
2022-12-23T19:19:26.361Z,17.70
2022-12-23T19:29:24.146Z,15.70
2022-12-23T19:38:27.462Z,18.30
2022-12-23T19:41:01.834Z,17.40
2022-12-23T19:43:33.964Z,15.40
2022-12-23T19:46:07.823Z,17.50
2022-12-23T19:48:44.351Z,17.80
2022-12-23T19:51:17.543Z,17.60
2022-12-23T19:53:53.857Z,17.20
2022-12-23T19:56:26.346Z,16.50
2022-12-23T19:58:59.599Z,17.30
2022-12-23T20:01:32.747Z,17.20
2022-12-23T20:04:04.641Z,17.20
2022-12-23T20:06:38.642Z,17.10
2022-12-23T20:09:11.775Z,19.40
2022-12-23T20:11:45.627Z,19.30
2022-12-23T20:14:18.985Z,19.10
2022-12-23T20:16:51.623Z,16.30
2022-12-23T20:19:24.389Z,17.60
2022-12-23T20:21:56.721Z,19.40
2022-12-23T20:24:28.795Z,17.20
2022-12-23T20:27:00.459Z,17.70
2022-12-23T20:29:32.935Z,20.80
2022-12-23T20:32:04.888Z,20.00
2022-12-23T20:34:46.512Z,18.50
2022-12-23T20:37:19.069Z,19.70
2022-12-23T20:39:51.202Z,20.20
2022-12-23T20:42:24.184Z,21.90
2022-12-23T20:44:56.085Z,22.00
2022-12-23T20:47:28.000Z,21.30
2022-12-23T20:49:59.582Z,21.10
2022-12-23T20:52:31.191Z,21.20
2022-12-23T20:55:03.042Z,21.80
2022-12-23T20:57:36.125Z,22.90
2022-12-23T21:00:08.927Z,20.10
2022-12-23T21:02:41.135Z,19.50
2022-12-23T21:05:13.233Z,18.80
2022-12-23T21:07:44.804Z,21.50
2022-12-23T21:10:16.684Z,21.00
2022-12-23T21:12:48.646Z,20.60
2022-12-23T21:15:21.379Z,25.80
2022-12-23T21:17:53.067Z,24.50
2022-12-23T21:20:25.089Z,22.90
2022-12-23T21:22:56.759Z,24.80
2022-12-23T21:25:28.707Z,21.60
2022-12-23T21:28:00.422Z,20.40
2022-12-23T21:30:32.127Z,20.90
2022-12-23T21:33:03.882Z,16.90
2022-12-23T21:35:36.558Z,18.30
2022-12-23T21:38:08.251Z,18.50
2022-12-23T21:40:39.952Z,18.90
2022-12-23T21:43:11.786Z,19.70
2022-12-23T21:45:44.110Z,20.80
2022-12-23T21:48:15.808Z,20.50
2022-12-23T21:50:47.542Z,20.30
2022-12-23T21:53:19.210Z,20.30
2022-12-23T21:55:50.976Z,20.40
2022-12-23T21:58:22.555Z,19.30
2022-12-23T22:00:54.427Z,19.90
2022-12-23T22:03:26.379Z,20.70
2022-12-23T22:06:10.248Z,22.20
2022-12-23T22:08:43.890Z,21.00
2022-12-23T22:11:18.364Z,21.20
2022-12-23T22:13:50.065Z,19.10
2022-12-23T22:16:25.317Z,20.10
2022-12-23T22:18:58.197Z,20.90
2022-12-23T22:21:31.447Z,21.00
2022-12-23T22:24:04.717Z,20.20
2022-12-23T22:26:37.474Z,20.10
2022-12-23T22:29:09.480Z,21.90
2022-12-23T22:31:45.676Z,22.60
2022-12-23T22:34:19.256Z,20.90
2022-12-23T22:36:51.435Z,20.50
2022-12-23T22:39:24.235Z,19.50
2022-12-23T22:41:55.909Z,19.90
2022-12-23T22:44:27.515Z,19.10
2022-12-23T22:46:59.306Z,21.30
2022-12-23T22:49:31.126Z,22.50
2022-12-23T22:52:02.642Z,21.80
2022-12-23T22:54:34.405Z,21.80
2022-12-23T22:57:06.563Z,21.70
2022-12-23T22:59:38.619Z,20.20
2022-12-23T23:02:10.421Z,21.60
2022-12-23T23:04:43.010Z,23.90
2022-12-23T23:07:15.530Z,25.00
2022-12-23T23:09:51.099Z,27.20
2022-12-23T23:12:23.157Z,25.60
2022-12-23T23:14:55.148Z,25.80
2022-12-23T23:17:29.181Z,28.00
2022-12-23T23:20:01.199Z,26.60
2022-12-23T23:22:42.420Z,27.10
2022-12-23T23:25:17.060Z,27.20
2022-12-23T23:27:49.758Z,29.20
2022-12-23T23:30:21.664Z,27.90
2022-12-23T23:32:53.400Z,26.30
2022-12-23T23:35:25.051Z,27.90
2022-12-23T23:37:56.578Z,28.00
2022-12-23T23:40:28.809Z,28.00
2022-12-23T23:43:00.820Z,24.90
2022-12-23T23:45:32.399Z,28.10
2022-12-23T23:48:03.959Z,29.60
2022-12-23T23:50:35.388Z,27.10
2022-12-23T23:53:06.935Z,26.40
2022-12-23T23:55:38.514Z,30.00
2022-12-23T23:58:10.698Z,29.50
